< < Back
Terminal Aerodrome Forecast


Current Version              Previous Versions:   1  2  3  4  5  6  7  8  9  

Terminal Aerodrome Forecast

550
FTAK31 PAJN 011100
TAFAGS
TAF
PAGS 011131Z 0112/0212 VRB02KT 6SM -SHRA SCT007 BKN010 OVC030
     FM011400 13003KT 6SM -SHRA BR BKN007 OVC015
     FM011800 21004KT P6SM VCSH FEW015 BKN040 OVC060
     FM020000 24005KT P6SM FEW015 SCT040 BKN060
     FM020400 24005KT P6SM FEW015 SCT060
     FM020800 24005KT P6SM VCFG FEW015 SCT060
      AMD NOT SKED=

Latest METAR

346
SAUS70 KWBC 011100 RRD
MTRAGS
METAR KAGS 011049Z 00000KT 3SM BR FEW003 22/21 A3010 RMK AO2 SLP191
T02170211


USA.gov is the U.S. government's official web portal to all federal, state and local government web resources and services.